sensor_id;sensor_type;location;lat;lon;timestamp;P1;durP1;ratioP1;P2;durP2;ratioP2
39098;SDS011;24844;52.380;7.018;2023-02-10T00:00:42;82.80;;;40.63;;
39098;SDS011;24844;52.380;7.018;2023-02-10T00:03:08;68.70;;;38.00;;
39098;SDS011;24844;52.380;7.018;2023-02-10T00:05:34;69.07;;;37.72;;
39098;SDS011;24844;52.380;7.018;2023-02-10T00:07:59;68.30;;;38.70;;
39098;SDS011;24844;52.380;7.018;2023-02-10T00:10:25;80.32;;;44.22;;
39098;SDS011;24844;52.380;7.018;2023-02-10T00:12:50;88.28;;;43.67;;
39098;SDS011;24844;52.380;7.018;2023-02-10T00:15:16;85.70;;;44.35;;
39098;SDS011;24844;52.380;7.018;2023-02-10T00:17:41;93.95;;;43.85;;
39098;SDS011;24844;52.380;7.018;2023-02-10T00:20:07;114.63;;;52.88;;
39098;SDS011;24844;52.380;7.018;2023-02-10T00:22:34;83.45;;;42.30;;
39098;SDS011;24844;52.380;7.018;2023-02-10T00:24:59;92.75;;;46.70;;
39098;SDS011;24844;52.380;7.018;2023-02-10T00:27:25;113.07;;;48.17;;
39098;SDS011;24844;52.380;7.018;2023-02-10T00:29:51;112.70;;;50.47;;
39098;SDS011;24844;52.380;7.018;2023-02-10T00:32:16;118.45;;;52.60;;
39098;SDS011;24844;52.380;7.018;2023-02-10T00:34:43;113.55;;;51.20;;
39098;SDS011;24844;52.380;7.018;2023-02-10T00:37:10;141.60;;;58.10;;
39098;SDS011;24844;52.380;7.018;2023-02-10T00:39:35;98.30;;;47.60;;
39098;SDS011;24844;52.380;7.018;2023-02-10T00:42:01;106.22;;;48.33;;
39098;SDS011;24844;52.380;7.018;2023-02-10T00:44:26;134.18;;;56.80;;
39098;SDS011;24844;52.380;7.018;2023-02-10T00:46:52;116.60;;;51.33;;
39098;SDS011;24844;52.380;7.018;2023-02-10T00:49:17;116.57;;;50.60;;
39098;SDS011;24844;52.380;7.018;2023-02-10T00:51:43;94.35;;;45.78;;
39098;SDS011;24844;52.380;7.018;2023-02-10T00:54:10;126.22;;;52.95;;
39098;SDS011;24844;52.380;7.018;2023-02-10T00:56:37;78.80;;;41.92;;
39098;SDS011;24844;52.380;7.018;2023-02-10T00:59:03;114.45;;;50.58;;
39098;SDS011;24844;52.380;7.018;2023-02-10T01:01:29;134.50;;;57.85;;
39098;SDS011;24844;52.380;7.018;2023-02-10T01:03:55;143.30;;;57.85;;
39098;SDS011;24844;52.380;7.018;2023-02-10T01:06:20;132.73;;;55.00;;
39098;SDS011;24844;52.380;7.018;2023-02-10T01:08:46;102.28;;;46.45;;
39098;SDS011;24844;52.380;7.018;2023-02-10T01:11:11;103.60;;;46.42;;
39098;SDS011;24844;52.380;7.018;2023-02-10T01:13:38;106.75;;;48.47;;
39098;SDS011;24844;52.380;7.018;2023-02-10T01:16:05;80.60;;;41.05;;
39098;SDS011;24844;52.380;7.018;2023-02-10T01:18:37;135.07;;;53.78;;
39098;SDS011;24844;52.380;7.018;2023-02-10T01:21:10;99.78;;;46.00;;
39098;SDS011;24844;52.380;7.018;2023-02-10T01:23:41;141.20;;;57.05;;
39098;SDS011;24844;52.380;7.018;2023-02-10T01:26:08;105.25;;;48.30;;
39098;SDS011;24844;52.380;7.018;2023-02-10T01:28:35;111.88;;;51.72;;
39098;SDS011;24844;52.380;7.018;2023-02-10T01:31:08;89.10;;;41.40;;
39098;SDS011;24844;52.380;7.018;2023-02-10T01:33:36;122.40;;;49.85;;
39098;SDS011;24844;52.380;7.018;2023-02-10T01:36:03;95.28;;;43.85;;
39098;SDS011;24844;52.380;7.018;2023-02-10T01:38:29;82.68;;;35.58;;
39098;SDS011;24844;52.380;7.018;2023-02-10T01:40:55;114.53;;;51.42;;
39098;SDS011;24844;52.380;7.018;2023-02-10T01:43:21;121.07;;;51.53;;
39098;SDS011;24844;52.380;7.018;2023-02-10T01:45:46;141.07;;;55.40;;
39098;SDS011;24844;52.380;7.018;2023-02-10T01:48:12;110.25;;;49.33;;
39098;SDS011;24844;52.380;7.018;2023-02-10T01:50:40;109.95;;;47.92;;
39098;SDS011;24844;52.380;7.018;2023-02-10T01:56:02;101.75;;;42.53;;
39098;SDS011;24844;52.380;7.018;2023-02-10T01:58:29;106.05;;;46.60;;
39098;SDS011;24844;52.380;7.018;2023-02-10T02:00:57;82.32;;;38.03;;
39098;SDS011;24844;52.380;7.018;2023-02-10T02:03:23;95.88;;;43.65;;
39098;SDS011;24844;52.380;7.018;2023-02-10T02:05:49;113.35;;;48.72;;
39098;SDS011;24844;52.380;7.018;2023-02-10T02:08:16;83.97;;;40.30;;
39098;SDS011;24844;52.380;7.018;2023-02-10T02:22:08;81.10;;;40.13;;
39098;SDS011;24844;52.380;7.018;2023-02-10T02:28:21;137.52;;;54.05;;
39098;SDS011;24844;52.380;7.018;2023-02-10T02:36:53;83.13;;;41.80;;
39098;SDS011;24844;52.380;7.018;2023-02-10T02:39:28;73.43;;;39.15;;
39098;SDS011;24844;52.380;7.018;2023-02-10T02:42:28;90.03;;;42.42;;
39098;SDS011;24844;52.380;7.018;2023-02-10T02:44:51;91.05;;;45.13;;
39098;SDS011;24844;52.380;7.018;2023-02-10T03:01:28;111.95;;;47.45;;
39098;SDS011;24844;52.380;7.018;2023-02-10T03:03:59;102.45;;;46.30;;
39098;SDS011;24844;52.380;7.018;2023-02-10T03:06:25;91.72;;;42.70;;
39098;SDS011;24844;52.380;7.018;2023-02-10T03:08:51;119.32;;;50.80;;
39098;SDS011;24844;52.380;7.018;2023-02-10T03:11:18;90.68;;;44.08;;
39098;SDS011;24844;52.380;7.018;2023-02-10T03:13:43;84.55;;;39.72;;
39098;SDS011;24844;52.380;7.018;2023-02-10T03:16:09;82.90;;;42.33;;
39098;SDS011;24844;52.380;7.018;2023-02-10T03:18:34;100.95;;;47.60;;
39098;SDS011;24844;52.380;7.018;2023-02-10T03:21:00;93.18;;;44.85;;
39098;SDS011;24844;52.380;7.018;2023-02-10T03:23:25;80.40;;;39.35;;
39098;SDS011;24844;52.380;7.018;2023-02-10T03:25:51;96.07;;;44.47;;
39098;SDS011;24844;52.380;7.018;2023-02-10T03:28:17;85.70;;;41.38;;
39098;SDS011;24844;52.380;7.018;2023-02-10T03:30:42;93.13;;;42.47;;
39098;SDS011;24844;52.380;7.018;2023-02-10T03:33:14;100.68;;;44.10;;
39098;SDS011;24844;52.380;7.018;2023-02-10T03:35:39;82.85;;;40.47;;
39098;SDS011;24844;52.380;7.018;2023-02-10T03:38:06;78.32;;;38.45;;
39098;SDS011;24844;52.380;7.018;2023-02-10T03:40:32;90.47;;;43.33;;
39098;SDS011;24844;52.380;7.018;2023-02-10T03:42:57;84.50;;;40.47;;
39098;SDS011;24844;52.380;7.018;2023-02-10T03:45:23;84.72;;;40.85;;
39098;SDS011;24844;52.380;7.018;2023-02-10T03:47:49;87.07;;;41.08;;
39098;SDS011;24844;52.380;7.018;2023-02-10T03:50:14;83.57;;;40.40;;
39098;SDS011;24844;52.380;7.018;2023-02-10T03:52:40;73.70;;;37.35;;
39098;SDS011;24844;52.380;7.018;2023-02-10T03:55:05;83.55;;;39.42;;
39098;SDS011;24844;52.380;7.018;2023-02-10T03:57:31;74.22;;;37.97;;
39098;SDS011;24844;52.380;7.018;2023-02-10T03:59:57;79.65;;;37.80;;
39098;SDS011;24844;52.380;7.018;2023-02-10T04:02:23;58.03;;;30.70;;
39098;SDS011;24844;52.380;7.018;2023-02-10T04:04:48;76.80;;;38.40;;
39098;SDS011;24844;52.380;7.018;2023-02-10T04:07:14;86.28;;;40.65;;
39098;SDS011;24844;52.380;7.018;2023-02-10T04:09:40;88.38;;;40.47;;
39098;SDS011;24844;52.380;7.018;2023-02-10T04:12:05;81.68;;;38.10;;
39098;SDS011;24844;52.380;7.018;2023-02-10T04:14:31;84.85;;;38.53;;
39098;SDS011;24844;52.380;7.018;2023-02-10T04:16:57;75.65;;;35.35;;
39098;SDS011;24844;52.380;7.018;2023-02-10T04:19:22;86.22;;;40.50;;
39098;SDS011;24844;52.380;7.018;2023-02-10T04:21:48;82.53;;;40.10;;
39098;SDS011;24844;52.380;7.018;2023-02-10T04:24:14;81.07;;;37.03;;
39098;SDS011;24844;52.380;7.018;2023-02-10T04:26:39;82.78;;;37.58;;
39098;SDS011;24844;52.380;7.018;2023-02-10T04:29:05;71.72;;;35.50;;
39098;SDS011;24844;52.380;7.018;2023-02-10T04:31:30;85.35;;;39.00;;
39098;SDS011;24844;52.380;7.018;2023-02-10T04:33:56;89.13;;;42.92;;
39098;SDS011;24844;52.380;7.018;2023-02-10T04:36:22;74.10;;;36.03;;
39098;SDS011;24844;52.380;7.018;2023-02-10T04:38:47;72.88;;;36.35;;
39098;SDS011;24844;52.380;7.018;2023-02-10T04:41:13;70.72;;;36.40;;
39098;SDS011;24844;52.380;7.018;2023-02-10T04:43:39;87.07;;;41.13;;
39098;SDS011;24844;52.380;7.018;2023-02-10T04:46:04;82.72;;;40.03;;
39098;SDS011;24844;52.380;7.018;2023-02-10T04:48:30;79.22;;;38.75;;
39098;SDS011;24844;52.380;7.018;2023-02-10T04:50:56;61.33;;;33.88;;
39098;SDS011;24844;52.380;7.018;2023-02-10T04:53:22;69.53;;;34.97;;
39098;SDS011;24844;52.380;7.018;2023-02-10T04:55:48;80.85;;;39.75;;
39098;SDS011;24844;52.380;7.018;2023-02-10T04:58:13;71.25;;;33.50;;
39098;SDS011;24844;52.380;7.018;2023-02-10T05:00:39;74.53;;;36.60;;
39098;SDS011;24844;52.380;7.018;2023-02-10T05:03:04;62.63;;;32.88;;
39098;SDS011;24844;52.380;7.018;2023-02-10T05:05:30;69.55;;;36.03;;
39098;SDS011;24844;52.380;7.018;2023-02-10T05:07:56;68.03;;;34.97;;
39098;SDS011;24844;52.380;7.018;2023-02-10T05:10:21;67.45;;;35.80;;
39098;SDS011;24844;52.380;7.018;2023-02-10T05:12:47;77.80;;;38.08;;
39098;SDS011;24844;52.380;7.018;2023-02-10T05:15:13;84.35;;;41.85;;
39098;SDS011;24844;52.380;7.018;2023-02-10T05:17:39;90.85;;;44.53;;
39098;SDS011;24844;52.380;7.018;2023-02-10T05:20:05;78.35;;;39.55;;
39098;SDS011;24844;52.380;7.018;2023-02-10T05:22:34;88.15;;;41.40;;
39098;SDS011;24844;52.380;7.018;2023-02-10T05:25:00;74.38;;;38.08;;
39098;SDS011;24844;52.380;7.018;2023-02-10T05:27:26;76.55;;;38.35;;
39098;SDS011;24844;52.380;7.018;2023-02-10T05:29:51;74.13;;;36.75;;
39098;SDS011;24844;52.380;7.018;2023-02-10T05:32:17;71.28;;;36.83;;
39098;SDS011;24844;52.380;7.018;2023-02-10T05:34:42;81.70;;;40.95;;
39098;SDS011;24844;52.380;7.018;2023-02-10T05:37:08;85.40;;;41.08;;
39098;SDS011;24844;52.380;7.018;2023-02-10T05:39:33;80.15;;;39.15;;
39098;SDS011;24844;52.380;7.018;2023-02-10T05:41:59;73.22;;;35.58;;
39098;SDS011;24844;52.380;7.018;2023-02-10T05:44:26;99.20;;;43.90;;
39098;SDS011;24844;52.380;7.018;2023-02-10T05:46:53;92.88;;;43.20;;
39098;SDS011;24844;52.380;7.018;2023-02-10T05:49:19;95.20;;;39.08;;
39098;SDS011;24844;52.380;7.018;2023-02-10T05:51:45;83.18;;;39.15;;
39098;SDS011;24844;52.380;7.018;2023-02-10T05:54:11;89.50;;;40.85;;
39098;SDS011;24844;52.380;7.018;2023-02-10T05:56:38;78.93;;;39.53;;
39098;SDS011;24844;52.380;7.018;2023-02-10T05:59:04;75.57;;;37.13;;
39098;SDS011;24844;52.380;7.018;2023-02-10T06:01:30;77.75;;;38.28;;
39098;SDS011;24844;52.380;7.018;2023-02-10T06:03:56;87.40;;;41.47;;
39098;SDS011;24844;52.380;7.018;2023-02-10T06:06:22;100.90;;;41.15;;
39098;SDS011;24844;52.380;7.018;2023-02-10T06:08:48;77.53;;;38.08;;
39098;SDS011;24844;52.380;7.018;2023-02-10T06:11:13;81.75;;;40.03;;
39098;SDS011;24844;52.380;7.018;2023-02-10T06:13:39;89.70;;;41.60;;
39098;SDS011;24844;52.380;7.018;2023-02-10T06:16:05;92.28;;;44.63;;
39098;SDS011;24844;52.380;7.018;2023-02-10T06:18:31;76.32;;;37.90;;
39098;SDS011;24844;52.380;7.018;2023-02-10T06:20:57;78.28;;;39.10;;
39098;SDS011;24844;52.380;7.018;2023-02-10T06:23:23;84.55;;;39.90;;
39098;SDS011;24844;52.380;7.018;2023-02-10T06:25:49;86.18;;;43.13;;
39098;SDS011;24844;52.380;7.018;2023-02-10T06:28:22;97.03;;;45.67;;
39098;SDS011;24844;52.380;7.018;2023-02-10T06:30:48;89.63;;;42.97;;
39098;SDS011;24844;52.380;7.018;2023-02-10T06:33:14;98.18;;;46.60;;
39098;SDS011;24844;52.380;7.018;2023-02-10T06:35:39;95.97;;;45.47;;
39098;SDS011;24844;52.380;7.018;2023-02-10T06:38:05;99.65;;;47.67;;
39098;SDS011;24844;52.380;7.018;2023-02-10T06:40:30;105.82;;;48.45;;
39098;SDS011;24844;52.380;7.018;2023-02-10T06:42:56;103.70;;;46.72;;
39098;SDS011;24844;52.380;7.018;2023-02-10T06:45:21;98.40;;;45.65;;
39098;SDS011;24844;52.380;7.018;2023-02-10T06:47:47;87.28;;;42.53;;
39098;SDS011;24844;52.380;7.018;2023-02-10T06:50:13;97.15;;;45.17;;
39098;SDS011;24844;52.380;7.018;2023-02-10T06:52:39;92.57;;;43.45;;
39098;SDS011;24844;52.380;7.018;2023-02-10T06:55:08;122.28;;;50.70;;
39098;SDS011;24844;52.380;7.018;2023-02-10T06:57:34;91.63;;;43.35;;
39098;SDS011;24844;52.380;7.018;2023-02-10T07:00:02;120.15;;;50.33;;
39098;SDS011;24844;52.380;7.018;2023-02-10T07:02:28;110.53;;;45.58;;
39098;SDS011;24844;52.380;7.018;2023-02-10T07:04:54;118.85;;;50.92;;
39098;SDS011;24844;52.380;7.018;2023-02-10T07:07:20;111.60;;;49.50;;
39098;SDS011;24844;52.380;7.018;2023-02-10T07:09:45;113.45;;;48.70;;
39098;SDS011;24844;52.380;7.018;2023-02-10T07:12:11;102.70;;;45.33;;
39098;SDS011;24844;52.380;7.018;2023-02-10T07:14:37;124.88;;;50.67;;
39098;SDS011;24844;52.380;7.018;2023-02-10T07:17:03;132.13;;;54.15;;
39098;SDS011;24844;52.380;7.018;2023-02-10T07:19:29;97.38;;;45.50;;
39098;SDS011;24844;52.380;7.018;2023-02-10T07:21:55;127.97;;;51.88;;
39098;SDS011;24844;52.380;7.018;2023-02-10T07:24:21;312.25;;;68.38;;
39098;SDS011;24844;52.380;7.018;2023-02-10T07:26:47;117.25;;;49.72;;
39098;SDS011;24844;52.380;7.018;2023-02-10T07:29:12;129.15;;;52.42;;
39098;SDS011;24844;52.380;7.018;2023-02-10T07:31:38;148.63;;;56.17;;
39098;SDS011;24844;52.380;7.018;2023-02-10T07:34:03;115.97;;;50.38;;
39098;SDS011;24844;52.380;7.018;2023-02-10T07:36:29;118.60;;;51.85;;
39098;SDS011;24844;52.380;7.018;2023-02-10T07:38:55;119.68;;;51.05;;
39098;SDS011;24844;52.380;7.018;2023-02-10T07:41:21;123.18;;;50.05;;
39098;SDS011;24844;52.380;7.018;2023-02-10T07:43:46;132.65;;;55.92;;
39098;SDS011;24844;52.380;7.018;2023-02-10T07:46:12;142.65;;;56.55;;
39098;SDS011;24844;52.380;7.018;2023-02-10T07:48:37;149.50;;;59.47;;
39098;SDS011;24844;52.380;7.018;2023-02-10T07:51:03;133.05;;;56.53;;
39098;SDS011;24844;52.380;7.018;2023-02-10T07:53:29;152.88;;;58.53;;
39098;SDS011;24844;52.380;7.018;2023-02-10T07:55:57;154.45;;;58.83;;
39098;SDS011;24844;52.380;7.018;2023-02-10T07:58:23;117.60;;;52.20;;
39098;SDS011;24844;52.380;7.018;2023-02-10T08:00:49;154.25;;;61.22;;
39098;SDS011;24844;52.380;7.018;2023-02-10T08:03:15;137.68;;;56.45;;
39098;SDS011;24844;52.380;7.018;2023-02-10T08:05:40;149.73;;;59.45;;
39098;SDS011;24844;52.380;7.018;2023-02-10T08:08:12;137.88;;;56.67;;
39098;SDS011;24844;52.380;7.018;2023-02-10T08:10:38;147.55;;;59.83;;
39098;SDS011;24844;52.380;7.018;2023-02-10T08:13:04;144.25;;;59.45;;
39098;SDS011;24844;52.380;7.018;2023-02-10T08:15:29;149.70;;;59.55;;
39098;SDS011;24844;52.380;7.018;2023-02-10T08:17:55;171.80;;;66.63;;
39098;SDS011;24844;52.380;7.018;2023-02-10T08:20:22;143.90;;;61.28;;
39098;SDS011;24844;52.380;7.018;2023-02-10T08:22:48;611.13;;;98.30;;
39098;SDS011;24844;52.380;7.018;2023-02-10T08:25:17;153.57;;;65.32;;
39098;SDS011;24844;52.380;7.018;2023-02-10T08:27:43;155.00;;;63.03;;
39098;SDS011;24844;52.380;7.018;2023-02-10T08:30:09;153.90;;;64.32;;
39098;SDS011;24844;52.380;7.018;2023-02-10T08:32:36;152.05;;;67.18;;
39098;SDS011;24844;52.380;7.018;2023-02-10T08:35:02;149.98;;;65.80;;
39098;SDS011;24844;52.380;7.018;2023-02-10T08:37:28;145.50;;;64.35;;
39098;SDS011;24844;52.380;7.018;2023-02-10T08:39:53;142.38;;;66.47;;
39098;SDS011;24844;52.380;7.018;2023-02-10T08:42:19;155.40;;;67.53;;
39098;SDS011;24844;52.380;7.018;2023-02-10T08:44:45;135.68;;;62.95;;
39098;SDS011;24844;52.380;7.018;2023-02-10T08:47:10;146.43;;;64.47;;
39098;SDS011;24844;52.380;7.018;2023-02-10T08:49:39;143.63;;;64.40;;
39098;SDS011;24844;52.380;7.018;2023-02-10T08:52:05;151.85;;;66.45;;
39098;SDS011;24844;52.380;7.018;2023-02-10T08:54:31;138.70;;;67.95;;
39098;SDS011;24844;52.380;7.018;2023-02-10T08:56:57;137.80;;;64.55;;
39098;SDS011;24844;52.380;7.018;2023-02-10T08:59:25;131.18;;;61.58;;
39098;SDS011;24844;52.380;7.018;2023-02-10T09:01:54;136.23;;;63.38;;
39098;SDS011;24844;52.380;7.018;2023-02-10T09:04:20;115.68;;;56.78;;
39098;SDS011;24844;52.380;7.018;2023-02-10T09:06:46;117.40;;;59.50;;
39098;SDS011;24844;52.380;7.018;2023-02-10T09:09:17;106.25;;;56.63;;
39098;SDS011;24844;52.380;7.018;2023-02-10T09:11:47;107.22;;;54.15;;
39098;SDS011;24844;52.380;7.018;2023-02-10T09:14:13;85.90;;;49.20;;
39098;SDS011;24844;52.380;7.018;2023-02-10T09:16:39;79.28;;;46.63;;
39098;SDS011;24844;52.380;7.018;2023-02-10T09:19:05;87.88;;;50.10;;
39098;SDS011;24844;52.380;7.018;2023-02-10T09:21:31;76.10;;;46.35;;
39098;SDS011;24844;52.380;7.018;2023-02-10T09:23:57;72.32;;;43.22;;
39098;SDS011;24844;52.380;7.018;2023-02-10T09:26:23;78.47;;;42.22;;
39098;SDS011;24844;52.380;7.018;2023-02-10T09:28:49;63.42;;;37.97;;
39098;SDS011;24844;52.380;7.018;2023-02-10T09:31:16;58.38;;;35.72;;
39098;SDS011;24844;52.380;7.018;2023-02-10T09:33:42;55.63;;;34.33;;
39098;SDS011;24844;52.380;7.018;2023-02-10T09:36:18;53.70;;;32.67;;
39098;SDS011;24844;52.380;7.018;2023-02-10T09:38:44;64.90;;;33.45;;
39098;SDS011;24844;52.380;7.018;2023-02-10T09:49:14;45.95;;;28.17;;
39098;SDS011;24844;52.380;7.018;2023-02-10T09:51:46;42.33;;;25.45;;
39098;SDS011;24844;52.380;7.018;2023-02-10T09:54:16;65.50;;;28.83;;
39098;SDS011;24844;52.380;7.018;2023-02-10T09:56:42;45.25;;;27.42;;
39098;SDS011;24844;52.380;7.018;2023-02-10T09:59:13;44.30;;;26.50;;
39098;SDS011;24844;52.380;7.018;2023-02-10T10:01:41;55.45;;;28.50;;
39098;SDS011;24844;52.380;7.018;2023-02-10T10:04:12;44.75;;;27.40;;
39098;SDS011;24844;52.380;7.018;2023-02-10T10:11:41;49.35;;;26.65;;
39098;SDS011;24844;52.380;7.018;2023-02-10T10:14:26;42.85;;;25.88;;
39098;SDS011;24844;52.380;7.018;2023-02-10T10:30:56;45.08;;;26.40;;
39098;SDS011;24844;52.380;7.018;2023-02-10T10:33:31;43.60;;;26.08;;
39098;SDS011;24844;52.380;7.018;2023-02-10T10:36:10;42.65;;;26.40;;
39098;SDS011;24844;52.380;7.018;2023-02-10T10:38:46;38.47;;;24.70;;
39098;SDS011;24844;52.380;7.018;2023-02-10T10:41:20;46.22;;;25.83;;
39098;SDS011;24844;52.380;7.018;2023-02-10T10:43:51;42.20;;;25.08;;
39098;SDS011;24844;52.380;7.018;2023-02-10T10:46:30;38.45;;;24.13;;
39098;SDS011;24844;52.380;7.018;2023-02-10T10:49:05;41.80;;;25.98;;
39098;SDS011;24844;52.380;7.018;2023-02-10T10:51:38;43.17;;;25.27;;
39098;SDS011;24844;52.380;7.018;2023-02-10T10:54:14;42.42;;;24.85;;
39098;SDS011;24844;52.380;7.018;2023-02-10T10:56:50;43.38;;;26.42;;
39098;SDS011;24844;52.380;7.018;2023-02-10T10:59:41;42.38;;;25.73;;
39098;SDS011;24844;52.380;7.018;2023-02-10T11:02:18;42.75;;;24.42;;
39098;SDS011;24844;52.380;7.018;2023-02-10T11:04:59;40.67;;;24.63;;
39098;SDS011;24844;52.380;7.018;2023-02-10T11:07:31;40.00;;;24.23;;
39098;SDS011;24844;52.380;7.018;2023-02-10T11:10:03;34.58;;;23.05;;
39098;SDS011;24844;52.380;7.018;2023-02-10T11:12:33;39.00;;;22.90;;
39098;SDS011;24844;52.380;7.018;2023-02-10T11:15:02;31.40;;;20.48;;
39098;SDS011;24844;52.380;7.018;2023-02-10T11:17:36;33.60;;;21.70;;
39098;SDS011;24844;52.380;7.018;2023-02-10T11:22:39;31.60;;;19.80;;
39098;SDS011;24844;52.380;7.018;2023-02-10T11:27:50;31.20;;;19.73;;
39098;SDS011;24844;52.380;7.018;2023-02-10T11:30:23;33.90;;;18.50;;
39098;SDS011;24844;52.380;7.018;2023-02-10T11:32:49;32.10;;;17.92;;
39098;SDS011;24844;52.380;7.018;2023-02-10T11:35:16;26.27;;;17.63;;
39098;SDS011;24844;52.380;7.018;2023-02-10T11:37:42;28.55;;;18.95;;
39098;SDS011;24844;52.380;7.018;2023-02-10T11:40:24;32.38;;;19.35;;
39098;SDS011;24844;52.380;7.018;2023-02-10T11:42:52;29.25;;;17.95;;
39098;SDS011;24844;52.380;7.018;2023-02-10T11:45:19;30.67;;;17.45;;
39098;SDS011;24844;52.380;7.018;2023-02-10T11:47:46;33.15;;;17.00;;
39098;SDS011;24844;52.380;7.018;2023-02-10T11:50:25;31.75;;;18.48;;
39098;SDS011;24844;52.380;7.018;2023-02-10T11:52:57;23.75;;;16.17;;
39098;SDS011;24844;52.380;7.018;2023-02-10T11:55:52;29.98;;;17.25;;
39098;SDS011;24844;52.380;7.018;2023-02-10T11:58:24;36.90;;;19.38;;
39098;SDS011;24844;52.380;7.018;2023-02-10T12:01:24;37.00;;;19.08;;
39098;SDS011;24844;52.380;7.018;2023-02-10T12:03:56;37.17;;;19.58;;
39098;SDS011;24844;52.380;7.018;2023-02-10T12:06:27;39.25;;;18.90;;
39098;SDS011;24844;52.380;7.018;2023-02-10T12:08:57;36.10;;;20.63;;
39098;SDS011;24844;52.380;7.018;2023-02-10T12:14:09;39.65;;;20.13;;
39098;SDS011;24844;52.380;7.018;2023-02-10T12:24:53;35.40;;;19.45;;
39098;SDS011;24844;52.380;7.018;2023-02-10T12:35:24;40.55;;;21.45;;
39098;SDS011;24844;52.380;7.018;2023-02-10T12:38:04;40.75;;;23.15;;
39098;SDS011;24844;52.380;7.018;2023-02-10T12:40:41;39.90;;;22.65;;
39098;SDS011;24844;52.380;7.018;2023-02-10T12:45:39;49.05;;;26.13;;
39098;SDS011;24844;52.380;7.018;2023-02-10T12:53:39;48.40;;;25.98;;
39098;SDS011;24844;52.380;7.018;2023-02-10T12:56:08;44.40;;;24.05;;
39098;SDS011;24844;52.380;7.018;2023-02-10T12:58:43;44.42;;;26.25;;
39098;SDS011;24844;52.380;7.018;2023-02-10T13:01:12;44.70;;;25.02;;
39098;SDS011;24844;52.380;7.018;2023-02-10T13:08:38;54.15;;;26.63;;
39098;SDS011;24844;52.380;7.018;2023-02-10T13:11:09;47.70;;;26.45;;
39098;SDS011;24844;52.380;7.018;2023-02-10T13:13:36;50.95;;;25.95;;
39098;SDS011;24844;52.380;7.018;2023-02-10T13:16:17;54.25;;;27.95;;
39098;SDS011;24844;52.380;7.018;2023-02-10T13:18:50;56.30;;;27.83;;
39098;SDS011;24844;52.380;7.018;2023-02-10T13:21:33;51.10;;;26.95;;
39098;SDS011;24844;52.380;7.018;2023-02-10T13:24:06;46.38;;;25.00;;
39098;SDS011;24844;52.380;7.018;2023-02-10T13:26:37;54.78;;;28.20;;
39098;SDS011;24844;52.380;7.018;2023-02-10T13:34:31;53.60;;;27.88;;
39098;SDS011;24844;52.380;7.018;2023-02-10T13:37:08;51.00;;;24.95;;
39098;SDS011;24844;52.380;7.018;2023-02-10T13:39:37;53.45;;;27.17;;
39098;SDS011;24844;52.380;7.018;2023-02-10T13:42:09;53.17;;;27.00;;
39098;SDS011;24844;52.380;7.018;2023-02-10T13:44:40;57.83;;;27.52;;
39098;SDS011;24844;52.380;7.018;2023-02-10T13:49:39;61.63;;;28.85;;
39098;SDS011;24844;52.380;7.018;2023-02-10T13:52:32;52.20;;;27.50;;
39098;SDS011;24844;52.380;7.018;2023-02-10T13:55:22;57.25;;;28.92;;
39098;SDS011;24844;52.380;7.018;2023-02-10T14:00:18;57.90;;;29.00;;
39098;SDS011;24844;52.380;7.018;2023-02-10T14:02:45;58.88;;;29.90;;
39098;SDS011;24844;52.380;7.018;2023-02-10T14:05:28;59.72;;;28.52;;
39098;SDS011;24844;52.380;7.018;2023-02-10T14:07:54;57.67;;;29.90;;
39098;SDS011;24844;52.380;7.018;2023-02-10T14:12:58;63.22;;;29.52;;
39098;SDS011;24844;52.380;7.018;2023-02-10T14:15:28;57.80;;;28.88;;
39098;SDS011;24844;52.380;7.018;2023-02-10T14:17:56;58.03;;;29.70;;
39098;SDS011;24844;52.380;7.018;2023-02-10T14:20:27;55.73;;;28.43;;
39098;SDS011;24844;52.380;7.018;2023-02-10T14:22:53;53.38;;;26.70;;
39098;SDS011;24844;52.380;7.018;2023-02-10T14:27:54;65.95;;;29.08;;
39098;SDS011;24844;52.380;7.018;2023-02-10T14:30:26;64.90;;;29.60;;
39098;SDS011;24844;52.380;7.018;2023-02-10T14:32:53;57.90;;;29.58;;
39098;SDS011;24844;52.380;7.018;2023-02-10T14:35:21;52.60;;;27.42;;
39098;SDS011;24844;52.380;7.018;2023-02-10T14:37:49;59.15;;;28.25;;
39098;SDS011;24844;52.380;7.018;2023-02-10T14:40:15;64.00;;;31.48;;
39098;SDS011;24844;52.380;7.018;2023-02-10T14:42:42;60.50;;;30.05;;
39098;SDS011;24844;52.380;7.018;2023-02-10T14:45:18;63.25;;;31.98;;
39098;SDS011;24844;52.380;7.018;2023-02-10T14:47:45;59.63;;;28.23;;
39098;SDS011;24844;52.380;7.018;2023-02-10T14:52:49;68.75;;;30.15;;
39098;SDS011;24844;52.380;7.018;2023-02-10T14:55:29;59.17;;;28.05;;
39098;SDS011;24844;52.380;7.018;2023-02-10T15:05:46;61.20;;;29.40;;
39098;SDS011;24844;52.380;7.018;2023-02-10T15:08:14;74.88;;;31.98;;
39098;SDS011;24844;52.380;7.018;2023-02-10T15:10:43;62.85;;;29.10;;
39098;SDS011;24844;52.380;7.018;2023-02-10T15:13:11;60.53;;;29.25;;
39098;SDS011;24844;52.380;7.018;2023-02-10T15:15:39;62.83;;;27.98;;
39098;SDS011;24844;52.380;7.018;2023-02-10T15:18:07;72.03;;;34.45;;
39098;SDS011;24844;52.380;7.018;2023-02-10T15:20:35;65.50;;;29.75;;
39098;SDS011;24844;52.380;7.018;2023-02-10T15:28:17;65.53;;;30.50;;
39098;SDS011;24844;52.380;7.018;2023-02-10T15:33:20;72.20;;;34.58;;
39098;SDS011;24844;52.380;7.018;2023-02-10T15:38:20;71.38;;;33.60;;
39098;SDS011;24844;52.380;7.018;2023-02-10T15:40:56;69.10;;;32.90;;
39098;SDS011;24844;52.380;7.018;2023-02-10T15:45:48;72.03;;;33.13;;
39098;SDS011;24844;52.380;7.018;2023-02-10T15:48:21;64.63;;;30.95;;
39098;SDS011;24844;52.380;7.018;2023-02-10T15:50:47;73.30;;;34.05;;
39098;SDS011;24844;52.380;7.018;2023-02-10T15:53:16;75.50;;;34.40;;
39098;SDS011;24844;52.380;7.018;2023-02-10T15:55:44;68.63;;;33.28;;
39098;SDS011;24844;52.380;7.018;2023-02-10T15:58:11;71.50;;;34.42;;
39098;SDS011;24844;52.380;7.018;2023-02-10T16:00:37;70.03;;;32.78;;
39098;SDS011;24844;52.380;7.018;2023-02-10T16:03:03;78.10;;;35.45;;
39098;SDS011;24844;52.380;7.018;2023-02-10T16:05:31;68.18;;;33.72;;
39098;SDS011;24844;52.380;7.018;2023-02-10T16:08:01;70.22;;;33.38;;
39098;SDS011;24844;52.380;7.018;2023-02-10T16:10:29;71.93;;;33.33;;
39098;SDS011;24844;52.380;7.018;2023-02-10T16:12:55;70.47;;;33.42;;
39098;SDS011;24844;52.380;7.018;2023-02-10T16:15:22;58.88;;;27.58;;
39098;SDS011;24844;52.380;7.018;2023-02-10T16:17:50;67.78;;;31.27;;
39098;SDS011;24844;52.380;7.018;2023-02-10T16:20:17;67.72;;;31.17;;
39098;SDS011;24844;52.380;7.018;2023-02-10T16:22:45;68.13;;;31.05;;
39098;SDS011;24844;52.380;7.018;2023-02-10T16:25:11;63.60;;;28.30;;
39098;SDS011;24844;52.380;7.018;2023-02-10T16:27:37;58.38;;;25.90;;
39098;SDS011;24844;52.380;7.018;2023-02-10T16:30:03;57.30;;;26.50;;
39098;SDS011;24844;52.380;7.018;2023-02-10T16:32:29;51.97;;;25.08;;
39098;SDS011;24844;52.380;7.018;2023-02-10T16:34:55;54.40;;;24.55;;
39098;SDS011;24844;52.380;7.018;2023-02-10T16:37:21;45.63;;;21.48;;
39098;SDS011;24844;52.380;7.018;2023-02-10T16:39:48;42.75;;;19.77;;
39098;SDS011;24844;52.380;7.018;2023-02-10T16:42:14;46.53;;;20.98;;
39098;SDS011;24844;52.380;7.018;2023-02-10T16:44:40;45.58;;;19.65;;